Terminal Aerodrome Forecast
Issued by NWS Green Bay, WI

Home | Current Version | Previous Version | Text Only | Print | Product List | Glossary On
Versions: 1 2 3 4 5 6 7 8 9 10 11 12 13 14 15 16
000
FTUS43 KGRB 221720
TAFGRB
TAF
KGRB 221720Z 2218/2318 30012KT P6SM -SHRA SCT010 OVC035
      TEMPO 2218/2220 4SM -SHRA BR BKN010
     FM222000 30008KT P6SM -SHRA SCT025 OVC045
     FM222300 26005KT P6SM VCSH OVC060
     FM230200 24004KT P6SM SCT060 BKN120
     FM230500 24003KT P6SM SKC
     FM231200 19003KT P6SM SCT250
     FM231500 20008KT P6SM BKN120 BKN250=

USA.gov is the U.S. government's official web portal to all federal, state and local government web resources and services.